Everton, Arkansas
Current Conditions -  °F | °C
As of 2:53 PM on Monday 22 Dec 2014 (Local Time) from KHRO Reporting Station
Haze Haze  
Wind Chill: 43°   Ceiling: 2100
Heat Index: 48°   Visibility: 6mi
Dew Point: 48°   Wind: 10mph
Humidity: 100%   Direction: 160°SSE
Pressure: 29.52"   Gusts: NA
Location:  36.16°N, 92.91°W
Report Text: KHRO 222053Z AUTO 16009KT 6SM BR FEW005 BKN021 OVC025 09/09 A2952 RMK AO2 RAB35E49 SLP994 P0000 60000 T00890089 58010
Loading
Personal Weather Stations






























Interactive Weather Map New forecast layout! Learn more

10-Day Weather Forecast

Advertisements
Track Severe Weather on mobile